Камери на живо
METAR for:LBGO (Gorna Orechovista Ar, --, BU)
Text:LBGO 181730Z AUTO 07009KT 9999 NCD 23/10 Q1019
Temperature: 23.0°C ( 73°F)
Dewpoint: 10.0°C ( 50°F) [RH = 44%]
Pressure (altimeter):30.09 inches Hg (1019.0 mb)
Winds:from the ENE (70 degrees) at 10 MPH (9 knots; 4.6 m/s)
Visibility:6 or more sm (10+ km)
Ceiling:at least 12,000 feet AGL
Clouds:sky clear below 12,000 feet AGL

TAF for:LBGO (Gorna Orechovista Ar, --, BU) issued at 1700 UTC 18 Sep 2020
Text:TAF LBGO 181700Z 1818/1918 08012KT CAVOK
Forecast period:1800 UTC 18 September 2020 to 1800 UTC 19 September 2020
Forecast type:FROM: standard forecast or significant change
Winds:from the E (80 degrees) at 14 MPH (12 knots; 6.2 m/s)
Visibility:6 or more sm (10+ km)
Clouds:missing
Weather:NSW (no significant weather)